Time;durP1;ratioP1;P1;durP2;ratioP2;P2;SDS_P1;SDS_P2;PMS_P1;PMS_P2;Temp;Humidity;BMP_temperature;BMP_pressure;BME280_temperature;BME280_humidity;BME280_pressure;Samples;Min_cycle;Max_cycle;Signal;HPM_P1;HPM_P2
2022/10/30 00:00:40;0.00;0.00;0.62;0.00;0.00;0.62;1.80;1.57;;;30.00;31.20;;;;;;2265808;61;20356;-70
2022/10/30 00:03:26;0.00;0.00;0.62;0.00;0.00;0.62;2.30;1.80;;;30.00;30.50;;;;;;2265898;61;20387;-71
2022/10/30 00:06:11;0.00;0.00;0.62;0.00;0.00;0.62;1.80;1.40;;;30.00;30.50;;;;;;2266141;61;20381;-70
2022/10/30 00:08:55;0.00;0.00;0.62;0.00;0.00;0.62;2.07;1.70;;;30.00;30.50;;;;;;2265791;61;20579;-69
2022/10/30 00:11:40;0.00;0.00;0.62;0.00;0.00;0.62;2.53;1.73;;;30.00;30.50;;;;;;2265941;61;20582;-70
2022/10/30 00:14:25;0.00;0.00;0.62;0.00;0.00;0.62;1.50;1.10;;;30.10;30.60;;;;;;2265638;61;20431;-69
2022/10/30 00:17:10;0.00;0.00;0.62;0.00;0.00;0.62;2.03;1.47;;;30.00;30.50;;;;;;2265598;61;20361;-69
2022/10/30 00:19:56;0.00;0.00;0.62;0.00;0.00;0.62;2.17;1.63;;;30.00;30.50;;;;;;2266286;61;20403;-69
2022/10/30 00:22:40;0.00;0.00;0.62;0.00;0.00;0.62;3.17;2.13;;;30.00;30.50;;;;;;2265699;61;20364;-67
2022/10/30 00:25:25;0.00;0.00;0.62;0.00;0.00;0.62;2.37;1.80;;;30.00;30.40;;;;;;2265375;61;20828;-71
2022/10/30 00:28:10;0.00;0.00;0.62;0.00;0.00;0.62;2.33;1.73;;;30.00;30.40;;;;;;2266035;61;20626;-69
2022/10/30 00:30:58;0.00;0.00;0.62;0.00;0.00;0.62;2.67;2.13;;;30.00;30.40;;;;;;2265810;61;20945;-70
2022/10/30 00:33:43;0.00;0.00;0.62;0.00;0.00;0.62;2.63;2.10;;;30.00;30.40;;;;;;2266035;61;20404;-70
2022/10/30 00:36:29;0.00;0.00;0.62;0.00;0.00;0.62;2.43;2.17;;;30.00;30.40;;;;;;2265622;61;20377;-69
2022/10/30 00:39:13;0.00;0.00;0.62;0.00;0.00;0.62;3.73;1.93;;;30.00;31.10;;;;;;2265387;61;20345;-71
2022/10/30 00:41:58;0.00;0.00;0.62;0.00;0.00;0.62;2.67;2.00;;;30.00;30.40;;;;;;2265575;61;20360;-68
2022/10/30 00:44:48;0.00;0.00;0.62;0.00;0.00;0.62;3.77;1.93;;;30.00;30.40;;;;;;2265168;61;20412;-68
2022/10/30 00:47:36;0.00;0.00;0.62;0.00;0.00;0.62;2.27;2.00;;;30.00;30.40;;;;;;2265461;61;20361;-70
2022/10/30 00:50:26;0.00;0.00;0.62;0.00;0.00;0.62;2.20;1.60;;;30.00;30.40;;;;;;2265750;61;20440;-71
2022/10/30 00:53:17;0.00;0.00;0.62;0.00;0.00;0.62;4.13;2.00;;;30.00;30.50;;;;;;2265244;61;20369;-70
2022/10/30 00:56:07;0.00;0.00;0.62;0.00;0.00;0.62;3.70;1.83;;;30.00;30.50;;;;;;2265939;61;20381;-72
2022/10/30 00:58:59;0.00;0.00;0.62;0.00;0.00;0.62;2.77;1.70;;;29.90;31.10;;;;;;2265666;61;20364;-69
2022/10/30 01:01:45;0.00;0.00;0.62;0.00;0.00;0.62;3.83;1.70;;;29.90;31.10;;;;;;2265087;61;20399;-70
2022/10/30 01:04:34;0.00;0.00;0.62;0.00;0.00;0.62;3.70;2.30;;;29.90;30.50;;;;;;2265699;61;20462;-70
2022/10/30 01:07:19;0.00;0.00;0.62;0.00;0.00;0.62;3.80;2.70;;;29.90;30.40;;;;;;2265827;61;20365;-67
2022/10/30 01:10:07;0.00;0.00;0.62;0.00;0.00;0.62;3.83;2.67;;;29.90;30.30;;;;;;2265644;61;20483;-67
2022/10/30 01:12:54;0.00;0.00;0.62;0.00;0.00;0.62;2.77;2.37;;;29.90;30.20;;;;;;2265411;61;20388;-68
2022/10/30 01:15:48;0.00;0.00;0.62;0.00;0.00;0.62;2.73;2.37;;;29.90;30.20;;;;;;2264916;61;20385;-69
2022/10/30 01:18:44;0.00;0.00;0.62;0.00;0.00;0.62;5.70;2.53;;;29.90;30.20;;;;;;2265411;61;20364;-70
2022/10/30 01:21:45;0.00;0.00;0.62;0.00;0.00;0.62;3.10;2.53;;;29.90;30.70;;;;;;2265233;61;20380;-68
2022/10/30 01:24:45;0.00;0.00;0.62;0.00;0.00;0.62;5.57;2.73;;;29.90;30.00;;;;;;2264718;61;20377;-71
2022/10/30 01:27:40;0.00;0.00;0.62;0.00;0.00;0.62;5.10;3.47;;;29.80;30.00;;;;;;2265426;61;20365;-67
2022/10/30 01:30:45;0.00;0.00;0.62;0.00;0.00;0.62;3.30;2.43;;;29.80;30.00;;;;;;2264843;61;20730;-70
2022/10/30 01:33:43;0.00;0.00;0.62;0.00;0.00;0.62;5.30;3.03;;;29.80;30.00;;;;;;2265252;61;20477;-70
2022/10/30 01:36:35;0.00;0.00;0.62;0.00;0.00;0.62;3.70;2.77;;;29.80;30.00;;;;;;2265119;61;20407;-70
2022/10/30 01:39:24;0.00;0.00;0.62;0.00;0.00;0.62;5.13;3.10;;;29.80;29.90;;;;;;2264718;61;20396;-68
2022/10/30 01:42:10;0.00;0.00;0.62;0.00;0.00;0.62;3.23;2.60;;;29.80;29.90;;;;;;2265501;61;20729;-70
2022/10/30 01:44:57;0.00;0.00;0.62;0.00;0.00;0.62;3.90;2.60;;;29.80;29.90;;;;;;2265032;61;20384;-71
2022/10/30 01:48:05;0.00;0.00;0.62;0.00;0.00;0.62;3.60;3.20;;;29.80;29.80;;;;;;2265766;61;20591;-69
2022/10/30 01:51:02;0.00;0.00;0.62;0.00;0.00;0.62;6.43;2.90;;;29.70;30.10;;;;;;2265189;61;20725;-67
2022/10/30 01:53:59;0.00;0.00;0.62;0.00;0.00;0.62;4.13;2.90;;;29.70;29.80;;;;;;2264579;61;20408;-69
2022/10/30 01:56:54;0.00;0.00;0.62;0.00;0.00;0.62;4.37;2.70;;;29.70;29.80;;;;;;2265425;61;20353;-66
2022/10/30 01:59:46;0.00;0.00;0.62;0.00;0.00;0.62;7.73;3.20;;;29.70;29.80;;;;;;2264815;61;20407;-68
2022/10/30 02:02:32;0.00;0.00;0.62;0.00;0.00;0.62;6.37;3.30;;;29.70;29.80;;;;;;2265331;61;20357;-68
2022/10/30 02:05:28;0.00;0.00;0.62;0.00;0.00;0.62;3.80;3.00;;;29.70;29.80;;;;;;2265270;61;20393;-68
2022/10/30 02:08:13;0.00;0.00;0.62;0.00;0.00;0.62;4.60;3.30;;;29.70;29.70;;;;;;2264652;61;20395;-70
2022/10/30 02:10:58;0.00;0.00;0.62;0.00;0.00;0.62;4.20;3.50;;;29.60;29.60;;;;;;2265539;61;20361;-68
2022/10/30 02:13:56;0.00;0.00;0.62;0.00;0.00;0.62;4.07;2.70;;;29.60;29.60;;;;;;2264936;61;20387;-69
2022/10/30 02:16:47;0.00;0.00;0.62;0.00;0.00;0.62;5.07;2.93;;;29.60;29.60;;;;;;2265121;61;20477;-69
2022/10/30 02:19:34;0.00;0.00;0.62;0.00;0.00;0.62;6.20;3.50;;;29.60;29.60;;;;;;2265430;61;20361;-67
2022/10/30 02:22:21;0.00;0.00;0.62;0.00;0.00;0.62;4.20;3.80;;;29.60;30.10;;;;;;2264651;61;20368;-68
2022/10/30 02:25:08;0.00;0.00;0.62;0.00;0.00;0.62;5.40;3.30;;;29.60;29.60;;;;;;2265271;61;20372;-69
2022/10/30 02:27:52;0.00;0.00;0.62;0.00;0.00;0.62;7.77;3.17;;;29.60;29.70;;;;;;2265009;61;20365;-70
2022/10/30 02:30:37;0.00;0.00;0.62;0.00;0.00;0.62;4.83;2.70;;;29.60;29.60;;;;;;2264654;61;20434;-67
2022/10/30 02:33:23;0.00;0.00;0.62;0.00;0.00;0.62;5.57;3.30;;;29.50;29.50;;;;;;2265681;61;20362;-68
2022/10/30 02:36:08;0.00;0.00;0.62;0.00;0.00;0.62;5.20;3.33;;;29.50;29.60;;;;;;2265294;61;20771;-68
2022/10/30 02:38:54;0.00;0.00;0.62;0.00;0.00;0.62;4.73;3.03;;;29.60;29.60;;;;;;2265251;61;20407;-70
2022/10/30 02:41:39;0.00;0.00;0.62;0.00;0.00;0.62;4.40;2.73;;;29.50;29.60;;;;;;2265113;61;20368;-70
2022/10/30 02:44:24;0.00;0.00;0.62;0.00;0.00;0.62;3.63;2.87;;;29.50;29.60;;;;;;2264325;61;20433;-68
2022/10/30 02:47:09;0.00;0.00;0.62;0.00;0.00;0.62;4.77;3.03;;;29.50;29.60;;;;;;2265307;61;20388;-69
2022/10/30 02:49:53;0.00;0.00;0.62;0.00;0.00;0.62;4.17;2.70;;;29.50;29.50;;;;;;2264980;61;20381;-69
2022/10/30 02:52:38;0.00;0.00;0.62;0.00;0.00;0.62;4.87;3.63;;;29.50;29.50;;;;;;2264976;61;20360;-67
2022/10/30 02:55:24;0.00;0.00;0.62;0.00;0.00;0.62;5.40;3.70;;;29.50;29.50;;;;;;2265505;61;20852;-66
2022/10/30 02:58:11;0.00;0.00;0.62;0.00;0.00;0.62;3.13;2.77;;;29.50;29.50;;;;;;2264851;61;20381;-68
2022/10/30 03:01:03;0.00;0.00;0.62;0.00;0.00;0.62;4.27;3.10;;;29.40;29.50;;;;;;2264749;61;20380;-70
2022/10/30 03:03:49;0.00;0.00;0.62;0.00;0.00;0.62;4.80;3.27;;;29.40;29.50;;;;;;2265292;61;20411;-67
2022/10/30 03:06:34;0.00;0.00;0.62;0.00;0.00;0.62;4.60;3.33;;;29.40;29.50;;;;;;2261808;61;20652;-70
2022/10/30 03:09:19;0.00;0.00;0.62;0.00;0.00;0.62;4.17;3.13;;;29.40;30.00;;;;;;2265419;61;20400;-69
2022/10/30 03:12:06;0.00;0.00;0.62;0.00;0.00;0.62;3.43;3.13;;;29.40;29.50;;;;;;2264781;61;20361;-68
2022/10/30 03:14:51;0.00;0.00;0.62;0.00;0.00;0.62;3.20;2.90;;;29.40;29.50;;;;;;2264738;61;20513;-66
2022/10/30 03:17:35;0.00;0.00;0.62;0.00;0.00;0.62;4.10;2.93;;;29.40;29.50;;;;;;2265313;61;20361;-70
2022/10/30 03:20:20;0.00;0.00;0.62;0.00;0.00;0.62;6.97;3.00;;;29.40;29.40;;;;;;2265022;61;20388;-67
2022/10/30 03:23:04;0.00;0.00;0.62;0.00;0.00;0.62;5.00;3.90;;;29.40;29.40;;;;;;2265013;61;20388;-70
2022/10/30 03:25:53;0.00;0.00;0.62;0.00;0.00;0.62;8.23;3.63;;;29.40;29.30;;;;;;2265645;61;20481;-66
2022/10/30 03:28:39;0.00;0.00;0.62;0.00;0.00;0.62;6.10;3.83;;;29.40;29.30;;;;;;2264668;61;20361;-67
2022/10/30 03:31:24;0.00;0.00;0.62;0.00;0.00;0.62;5.00;3.80;;;29.30;29.20;;;;;;2265627;61;20610;-68
2022/10/30 03:34:27;0.00;0.00;0.62;0.00;0.00;0.62;4.20;3.20;;;29.30;29.20;;;;;;2264533;61;20404;-67
2022/10/30 03:37:11;0.00;0.00;0.62;0.00;0.00;0.62;3.60;3.30;;;29.30;29.20;;;;;;2264618;61;20582;-70
2022/10/30 03:39:57;0.00;0.00;0.62;0.00;0.00;0.62;7.40;3.50;;;29.20;29.20;;;;;;2265093;61;20744;-69
2022/10/30 03:42:41;0.00;0.00;0.62;0.00;0.00;0.62;6.90;3.90;;;29.20;29.20;;;;;;2264826;61;20392;-69
2022/10/30 03:45:28;0.00;0.00;0.62;0.00;0.00;0.62;4.70;3.20;;;29.20;29.20;;;;;;2264724;61;20733;-70
2022/10/30 03:48:13;0.00;0.00;0.62;0.00;0.00;0.62;3.73;3.43;;;29.20;29.30;;;;;;2264918;61;20579;-70
2022/10/30 03:50:58;0.00;0.00;0.62;0.00;0.00;0.62;5.07;2.93;;;29.20;29.30;;;;;;2265216;61;20399;-67
2022/10/30 03:53:44;0.00;0.00;0.62;0.00;0.00;0.62;4.30;3.33;;;29.20;29.80;;;;;;2265624;61;20408;-68
2022/10/30 03:56:29;0.00;0.00;0.62;0.00;0.00;0.62;5.70;3.70;;;29.10;29.30;;;;;;2265373;61;20750;-67
2022/10/30 03:59:16;0.00;0.00;0.62;0.00;0.00;0.62;5.30;2.73;;;29.10;29.30;;;;;;2265082;61;20376;-68
2022/10/30 04:02:11;0.00;0.00;0.62;0.00;0.00;0.62;3.47;3.10;;;29.10;29.30;;;;;;2265770;61;20780;-70
2022/10/30 04:04:56;0.00;0.00;0.62;0.00;0.00;0.62;4.50;2.87;;;29.10;29.30;;;;;;2265252;61;20511;-67
2022/10/30 04:07:41;0.00;0.00;0.62;0.00;0.00;0.62;4.47;3.90;;;29.10;29.30;;;;;;2265660;61;20780;-66
2022/10/30 04:10:27;0.00;0.00;0.62;0.00;0.00;0.62;5.90;3.93;;;29.10;29.30;;;;;;2265513;61;20361;-68
2022/10/30 04:13:16;0.00;0.00;0.62;0.00;0.00;0.62;4.87;3.27;;;29.10;29.20;;;;;;2264962;61;20368;-66
2022/10/30 04:16:07;0.00;0.00;0.62;0.00;0.00;0.62;4.80;3.90;;;29.10;29.30;;;;;;2265766;61;20388;-67
2022/10/30 04:18:53;0.00;0.00;0.62;0.00;0.00;0.62;5.93;3.33;;;29.10;29.30;;;;;;2265396;61;20384;-67
2022/10/30 04:21:38;0.00;0.00;0.62;0.00;0.00;0.62;6.10;3.77;;;29.00;29.20;;;;;;2265142;61;20578;-67
2022/10/30 04:24:23;0.00;0.00;0.62;0.00;0.00;0.62;3.93;3.53;;;29.00;29.20;;;;;;2265854;61;20776;-69
2022/10/30 04:27:12;0.00;0.00;0.62;0.00;0.00;0.62;4.17;3.20;;;29.00;29.20;;;;;;2265379;61;20373;-68
2022/10/30 04:29:57;0.00;0.00;0.62;0.00;0.00;0.62;5.40;4.00;;;29.10;29.30;;;;;;2265604;61;20365;-69
2022/10/30 04:32:46;0.00;0.00;0.62;0.00;0.00;0.62;4.37;3.77;;;29.00;29.20;;;;;;2262665;61;20403;-68
2022/10/30 04:35:37;0.00;0.00;0.62;0.00;0.00;0.62;4.07;3.50;;;29.00;29.20;;;;;;2265208;61;20393;-67
2022/10/30 04:38:26;0.00;0.00;0.62;0.00;0.00;0.62;4.30;3.67;;;29.00;29.20;;;;;;2265646;61;20376;-67
2022/10/30 04:41:11;0.00;0.00;0.62;0.00;0.00;0.62;6.50;3.90;;;29.00;29.20;;;;;;2265262;61;20385;-70
2022/10/30 04:44:10;0.00;0.00;0.62;0.00;0.00;0.62;5.53;3.37;;;28.90;29.20;;;;;;2264878;61;20615;-66
2022/10/30 04:46:55;0.00;0.00;0.62;0.00;0.00;0.62;6.07;4.17;;;28.90;29.20;;;;;;2265620;61;20361;-67
2022/10/30 04:49:42;0.00;0.00;0.62;0.00;0.00;0.62;5.90;4.10;;;28.90;29.20;;;;;;2264957;61;20353;-70
2022/10/30 04:52:28;0.00;0.00;0.62;0.00;0.00;0.62;5.23;4.13;;;28.90;29.20;;;;;;2265814;61;20392;-69
2022/10/30 04:55:13;0.00;0.00;0.62;0.00;0.00;0.62;7.33;4.00;;;28.90;29.20;;;;;;2264970;61;20389;-71
2022/10/30 04:58:03;0.00;0.00;0.62;0.00;0.00;0.62;7.00;3.93;;;28.90;29.20;;;;;;2265016;61;20350;-68
2022/10/30 05:00:52;0.00;0.00;0.62;0.00;0.00;0.62;4.87;3.40;;;28.90;29.20;;;;;;2265267;61;20408;-70
2022/10/30 05:03:37;0.00;0.00;0.62;0.00;0.00;0.62;8.93;4.80;;;28.80;29.10;;;;;;2265162;61;20365;-67
2022/10/30 05:06:29;0.00;0.00;0.62;0.00;0.00;0.62;7.67;3.97;;;28.80;29.10;;;;;;2267602;61;20392;-70
2022/10/30 05:09:15;0.00;0.00;0.62;0.00;0.00;0.62;4.83;3.83;;;28.80;29.20;;;;;;2265402;61;20385;-68
2022/10/30 05:12:00;0.00;0.00;0.62;0.00;0.00;0.62;3.67;3.10;;;28.70;29.10;;;;;;2265081;61;20357;-67
2022/10/30 05:14:50;0.00;0.00;0.62;0.00;0.00;0.62;4.27;3.10;;;28.70;29.20;;;;;;2265210;61;20784;-70
2022/10/30 05:17:36;0.00;0.00;0.62;0.00;0.00;0.62;4.17;3.30;;;28.70;29.20;;;;;;2265263;61;20365;-69
2022/10/30 05:20:21;0.00;0.00;0.62;0.00;0.00;0.62;5.50;3.37;;;28.70;29.20;;;;;;2265431;61;20557;-69
2022/10/30 05:23:05;0.00;0.00;0.62;0.00;0.00;0.62;4.40;3.87;;;28.70;29.20;;;;;;2265702;61;20360;-69
2022/10/30 05:25:52;0.00;0.00;0.62;0.00;0.00;0.62;4.13;3.50;;;28.70;29.20;;;;;;2265350;61;20372;-70
2022/10/30 05:28:38;0.00;0.00;0.62;0.00;0.00;0.62;5.87;4.33;;;28.60;29.20;;;;;;2264855;61;20357;-68
2022/10/30 05:31:23;0.00;0.00;0.62;0.00;0.00;0.62;4.50;3.70;;;28.60;29.20;;;;;;2265440;61;20356;-68
2022/10/30 05:34:23;0.00;0.00;0.62;0.00;0.00;0.62;5.87;4.27;;;28.60;29.20;;;;;;2265286;61;20471;-70
2022/10/30 05:37:11;0.00;0.00;0.62;0.00;0.00;0.62;3.73;3.43;;;28.60;29.20;;;;;;2265376;61;20349;-69
2022/10/30 05:39:56;0.00;0.00;0.62;0.00;0.00;0.62;5.30;4.13;;;28.60;29.80;;;;;;2265538;61;20432;-70
2022/10/30 05:42:46;0.00;0.00;0.62;0.00;0.00;0.62;5.80;3.83;;;28.60;29.20;;;;;;2264816;61;20724;-69
2022/10/30 05:45:31;0.00;0.00;0.62;0.00;0.00;0.62;4.10;3.70;;;28.50;29.10;;;;;;2265319;61;20385;-67
2022/10/30 05:48:18;0.00;0.00;0.62;0.00;0.00;0.62;4.80;3.70;;;28.50;29.20;;;;;;2265124;61;20721;-69
2022/10/30 05:51:05;0.00;0.00;0.62;0.00;0.00;0.62;11.20;4.10;;;28.50;29.20;;;;;;2264650;61;20404;-67
2022/10/30 05:53:50;0.00;0.00;0.62;0.00;0.00;0.62;4.70;3.50;;;28.50;29.20;;;;;;2265418;61;20384;-68
2022/10/30 05:56:38;0.00;0.00;0.62;0.00;0.00;0.62;10.17;4.07;;;28.40;29.10;;;;;;2264971;61;20365;-69
2022/10/30 05:59:24;0.00;0.00;0.62;0.00;0.00;0.62;4.70;3.63;;;28.40;29.10;;;;;;2265233;61;20607;-68
2022/10/30 06:02:09;0.00;0.00;0.62;0.00;0.00;0.62;6.60;4.00;;;28.40;29.20;;;;;;2265214;61;20510;-70
2022/10/30 06:04:54;0.00;0.00;0.62;0.00;0.00;0.62;5.43;3.50;;;28.40;29.20;;;;;;2264274;61;20385;-71
2022/10/30 06:07:39;0.00;0.00;0.62;0.00;0.00;0.62;4.83;3.70;;;28.40;29.70;;;;;;2265468;61;20468;-68
2022/10/30 06:10:26;0.00;0.00;0.62;0.00;0.00;0.62;7.83;4.60;;;28.30;29.20;;;;;;2265122;61;20353;-68
2022/10/30 06:13:32;0.00;0.00;0.62;0.00;0.00;0.62;5.20;4.00;;;28.30;29.20;;;;;;2264925;61;20361;-69
2022/10/30 06:16:44;0.00;0.00;0.62;0.00;0.00;0.62;5.90;4.27;;;28.30;29.20;;;;;;2265519;61;20373;-67
2022/10/30 06:19:40;0.00;0.00;0.62;0.00;0.00;0.62;3.93;3.53;;;28.20;29.20;;;;;;2264485;61;20365;-68
2022/10/30 06:22:53;0.00;0.00;0.62;0.00;0.00;0.62;5.60;3.77;;;28.30;29.20;;;;;;2265835;61;20717;-67
2022/10/30 06:25:39;0.00;0.00;0.62;0.00;0.00;0.62;5.53;3.90;;;28.20;29.20;;;;;;2264843;61;20409;-68
2022/10/30 06:28:31;0.00;0.00;0.62;0.00;0.00;0.62;5.27;3.70;;;28.20;29.20;;;;;;2265486;61;20353;-70
2022/10/30 06:31:16;0.00;0.00;0.62;0.00;0.00;0.62;5.20;3.50;;;28.20;29.20;;;;;;2265196;61;20356;-69
2022/10/30 06:34:02;0.00;0.00;0.62;0.00;0.00;0.62;5.63;3.33;;;28.20;29.20;;;;;;2264229;61;20440;-69
2022/10/30 06:36:49;0.00;0.00;0.62;0.00;0.00;0.62;6.10;4.23;;;28.20;29.20;;;;;;2265397;61;20714;-68
2022/10/30 06:39:33;0.00;0.00;0.62;0.00;0.00;0.62;6.47;4.23;;;28.20;29.10;;;;;;2264906;61;20358;-69
2022/10/30 06:42:32;0.00;0.00;0.62;0.00;0.00;0.62;5.87;3.70;;;28.10;28.80;;;;;;2262247;61;20361;-70
2022/10/30 06:45:26;0.00;0.00;0.62;0.00;0.00;0.62;6.70;4.70;;;28.10;28.80;;;;;;2265258;61;20369;-69
2022/10/30 06:48:10;0.00;0.00;0.62;0.00;0.00;0.62;7.70;4.03;;;28.00;28.90;;;;;;2264420;61;20361;-68
2022/10/30 06:51:05;0.00;0.00;0.62;0.00;0.00;0.62;6.00;4.57;;;27.90;28.90;;;;;;2265191;61;20445;-72
2022/10/30 06:53:54;0.00;0.00;0.62;0.00;0.00;0.62;5.33;4.20;;;27.90;29.00;;;;;;2264693;61;20499;-67
2022/10/30 06:56:57;0.00;0.00;0.62;0.00;0.00;0.62;4.97;3.40;;;27.90;29.10;;;;;;2264928;61;20361;-69
2022/10/30 07:00:12;0.00;0.00;0.62;0.00;0.00;0.62;5.23;4.00;;;27.80;29.10;;;;;;2264865;61;20388;-68
2022/10/30 07:03:31;0.00;0.00;0.62;0.00;0.00;0.62;6.07;3.80;;;27.80;29.20;;;;;;2264384;61;20369;-68
2022/10/30 07:06:18;0.00;0.00;0.62;0.00;0.00;0.62;8.13;4.13;;;27.80;29.20;;;;;;2265231;61;20662;-71
2022/10/30 07:09:03;0.00;0.00;0.62;0.00;0.00;0.62;6.80;4.20;;;27.80;29.30;;;;;;2264872;61;20356;-66
2022/10/30 07:11:50;0.00;0.00;0.62;0.00;0.00;0.62;6.20;4.20;;;27.80;29.30;;;;;;2261664;61;20419;-68
2022/10/30 07:14:44;0.00;0.00;0.62;0.00;0.00;0.62;5.00;4.50;;;27.80;29.30;;;;;;2265002;61;20439;-69
2022/10/30 07:17:34;0.00;0.00;0.62;0.00;0.00;0.62;5.93;4.00;;;27.80;29.30;;;;;;2264296;61;20572;-69
2022/10/30 07:20:28;0.00;0.00;0.62;0.00;0.00;0.62;7.03;3.90;;;27.80;29.40;;;;;;2264810;61;20361;-67
2022/10/30 07:23:14;0.00;0.00;0.62;0.00;0.00;0.62;6.60;4.67;;;27.80;29.40;;;;;;2264188;61;20361;-71
2022/10/30 07:25:59;0.00;0.00;0.62;0.00;0.00;0.62;7.43;4.00;;;27.80;29.40;;;;;;2265051;61;20447;-68
2022/10/30 07:28:55;0.00;0.00;0.62;0.00;0.00;0.62;6.40;4.00;;;27.80;29.40;;;;;;2265887;61;20352;-69
2022/10/30 07:31:57;0.00;0.00;0.62;0.00;0.00;0.62;6.70;4.37;;;27.80;29.40;;;;;;2263020;61;20356;-72
2022/10/30 07:34:54;0.00;0.00;0.62;0.00;0.00;0.62;6.80;4.50;;;27.80;29.40;;;;;;2265704;61;20401;-71
2022/10/30 07:37:45;0.00;0.00;0.62;0.00;0.00;0.62;8.80;4.20;;;27.80;29.40;;;;;;2265018;61;20368;-72
2022/10/30 07:40:33;0.00;0.00;0.62;0.00;0.00;0.62;4.77;4.10;;;27.80;29.40;;;;;;2265002;61;20353;-71
2022/10/30 07:43:32;0.00;0.00;0.62;0.00;0.00;0.62;9.30;4.67;;;27.80;29.50;;;;;;2265008;61;20353;-66
2022/10/30 07:46:32;0.00;0.00;0.62;0.00;0.00;0.62;5.00;3.47;;;27.80;29.50;;;;;;2265451;61;20408;-69
2022/10/30 07:49:40;0.00;0.00;0.62;0.00;0.00;0.62;5.37;3.70;;;27.80;29.50;;;;;;2265086;61;20403;-70
2022/10/30 07:52:30;0.00;0.00;0.62;0.00;0.00;0.62;4.10;3.40;;;27.80;29.50;;;;;;2265305;61;20472;-74
2022/10/30 07:55:15;0.00;0.00;0.62;0.00;0.00;0.62;6.90;3.57;;;27.80;29.60;;;;;;2264726;61;20431;-70
2022/10/30 07:58:02;0.00;0.00;0.62;0.00;0.00;0.62;9.60;3.90;;;27.80;29.60;;;;;;2263245;61;20411;-73
2022/10/30 08:01:19;0.00;0.00;0.62;0.00;0.00;0.62;4.20;3.27;;;27.90;29.70;;;;;;2264954;61;20429;-71
2022/10/30 08:04:04;0.00;0.00;0.62;0.00;0.00;0.62;5.63;4.10;;;27.90;29.70;;;;;;2264494;61;20427;-77
2022/10/30 08:06:49;0.00;0.00;0.62;0.00;0.00;0.62;5.87;3.70;;;27.90;29.70;;;;;;2265811;61;20714;-70
2022/10/30 08:09:34;0.00;0.00;0.62;0.00;0.00;0.62;4.60;4.10;;;27.90;29.70;;;;;;2265152;61;20400;-71
2022/10/30 08:12:20;0.00;0.00;0.62;0.00;0.00;0.62;8.60;4.20;;;27.90;29.70;;;;;;2265809;61;20357;-73
2022/10/30 08:15:07;0.00;0.00;0.62;0.00;0.00;0.62;5.50;4.20;;;28.00;29.80;;;;;;2265336;61;20393;-69
2022/10/30 08:17:53;0.00;0.00;0.62;0.00;0.00;0.62;6.23;3.73;;;28.00;29.70;;;;;;2265331;61;20360;-76
2022/10/30 08:20:38;0.00;0.00;0.62;0.00;0.00;0.62;4.17;3.60;;;28.00;29.80;;;;;;2262901;61;20430;-73
2022/10/30 08:23:23;0.00;0.00;0.62;0.00;0.00;0.62;4.27;3.80;;;28.10;29.80;;;;;;2265681;61;20395;-72
2022/10/30 08:26:08;0.00;0.00;0.62;0.00;0.00;0.62;5.27;3.77;;;28.10;29.80;;;;;;2265410;61;20423;-72
2022/10/30 08:28:54;0.00;0.00;0.62;0.00;0.00;0.62;7.50;3.63;;;28.10;29.80;;;;;;2265845;61;20387;-72
2022/10/30 08:31:40;0.00;0.00;0.62;0.00;0.00;0.62;5.33;3.30;;;28.10;30.30;;;;;;2265249;61;20365;-74
2022/10/30 08:34:41;0.00;0.00;0.62;0.00;0.00;0.62;4.27;3.07;;;28.10;29.80;;;;;;2265786;61;20674;-74
2022/10/30 08:37:26;0.00;0.00;0.62;0.00;0.00;0.62;3.93;3.30;;;28.10;29.80;;;;;;2265562;61;20429;-75
2022/10/30 08:40:11;0.00;0.00;0.62;0.00;0.00;0.62;3.90;3.23;;;28.20;29.90;;;;;;2263891;61;20361;-69
2022/10/30 08:43:08;0.00;0.00;0.62;0.00;0.00;0.62;5.97;3.80;;;28.20;29.90;;;;;;2265467;61;20598;-66
2022/10/30 08:45:56;0.00;0.00;0.62;0.00;0.00;0.62;5.87;3.90;;;28.20;30.30;;;;;;2497387;53;20653;-70
2022/10/30 08:48:42;0.00;0.00;0.62;0.00;0.00;0.62;5.03;3.90;;;28.30;29.80;;;;;;2262271;61;20369;-74
2022/10/30 08:51:30;0.00;0.00;0.62;0.00;0.00;0.62;4.40;3.40;;;28.30;30.10;;;;;;2265737;61;20563;-73
2022/10/30 08:54:15;0.00;0.00;0.62;0.00;0.00;0.62;4.60;3.30;;;28.40;29.90;;;;;;2264556;61;20424;-72
2022/10/30 08:57:01;0.00;0.00;0.62;0.00;0.00;0.62;6.87;3.50;;;28.30;29.90;;;;;;2263043;61;20368;-73
2022/10/30 08:59:47;0.00;0.00;0.62;0.00;0.00;0.62;5.27;3.23;;;28.40;29.90;;;;;;2264976;61;20369;-70
2022/10/30 09:02:53;0.00;0.00;0.62;0.00;0.00;0.62;4.37;3.67;;;28.40;29.90;;;;;;2265351;61;20595;-67
2022/10/30 09:05:51;0.00;0.00;0.62;0.00;0.00;0.62;4.03;3.17;;;28.50;29.90;;;;;;2266048;61;20373;-70
2022/10/30 09:08:55;0.00;0.00;0.62;0.00;0.00;0.62;5.93;3.80;;;28.50;29.90;;;;;;2265086;61;20426;-69
2022/10/30 09:12:02;0.00;0.00;0.62;0.00;0.00;0.62;4.93;2.60;;;28.50;29.90;;;;;;2265999;61;20364;-69
2022/10/30 09:14:51;0.00;0.00;0.62;0.00;0.00;0.62;3.40;2.80;;;28.60;30.00;;;;;;2264780;61;20384;-71
2022/10/30 09:17:37;0.00;0.00;0.62;0.00;0.00;0.62;3.67;3.00;;;28.60;29.90;;;;;;2264739;61;20353;-71
2022/10/30 09:20:21;0.00;0.00;0.62;0.00;0.00;0.62;4.00;3.60;;;28.60;29.90;;;;;;2265488;61;20368;-70
2022/10/30 09:23:08;0.00;0.00;0.62;0.00;0.00;0.62;3.43;3.00;;;28.70;29.90;;;;;;2265282;61;20365;-73
2022/10/30 09:25:56;0.00;0.00;0.62;0.00;0.00;0.62;5.53;3.10;;;28.70;29.90;;;;;;2282707;58;20396;-70
2022/10/30 09:29:07;0.00;0.00;0.62;0.00;0.00;0.62;4.13;3.00;;;28.80;30.00;;;;;;2265384;61;20368;-73
2022/10/30 09:32:11;0.00;0.00;0.62;0.00;0.00;0.62;4.00;3.33;;;28.80;30.00;;;;;;2265129;61;20356;-70
2022/10/30 09:35:08;0.00;0.00;0.62;0.00;0.00;0.62;5.40;3.60;;;28.80;29.90;;;;;;2265211;61;20385;-74
2022/10/30 09:37:57;0.00;0.00;0.62;0.00;0.00;0.62;4.70;3.13;;;28.90;30.00;;;;;;2265317;61;20417;-74
2022/10/30 09:41:17;0.00;0.00;0.62;0.00;0.00;0.62;4.20;3.20;;;28.90;30.00;;;;;;2265254;61;20772;-71
2022/10/30 09:44:21;0.00;0.00;0.62;0.00;0.00;0.62;8.30;3.73;;;28.90;29.90;;;;;;2264777;61;20362;-71
2022/10/30 09:47:21;0.00;0.00;0.62;0.00;0.00;0.62;4.40;3.47;;;29.00;30.00;;;;;;2264591;61;20446;-72
2022/10/30 09:50:24;0.00;0.00;0.62;0.00;0.00;0.62;7.33;4.00;;;29.00;30.00;;;;;;2265382;61;20399;-74
2022/10/30 09:53:19;0.00;0.00;0.62;0.00;0.00;0.62;3.37;2.93;;;29.00;29.90;;;;;;2264673;61;20408;-71
2022/10/30 09:56:14;0.00;0.00;0.62;0.00;0.00;0.62;3.97;3.23;;;29.10;29.90;;;;;;2265203;61;20427;-74
2022/10/30 09:59:15;0.00;0.00;0.62;0.00;0.00;0.62;5.13;3.17;;;29.10;29.90;;;;;;2265183;61;20451;-71
2022/10/30 10:02:14;0.00;0.00;0.62;0.00;0.00;0.62;5.33;3.50;;;29.20;30.00;;;;;;2264428;61;20368;-77
2022/10/30 10:05:05;0.00;0.00;0.62;0.00;0.00;0.62;4.20;3.43;;;29.20;29.90;;;;;;2265188;61;20616;-69
2022/10/30 10:08:17;0.00;0.00;0.62;0.00;0.00;0.62;4.47;3.20;;;29.20;29.90;;;;;;2263443;61;20471;-68
2022/10/30 10:11:28;0.00;0.00;0.62;0.00;0.00;0.62;5.83;3.63;;;29.30;29.90;;;;;;2265722;61;20358;-71
2022/10/30 10:14:16;0.00;0.00;0.62;0.00;0.00;0.62;4.60;3.13;;;29.30;29.90;;;;;;2264922;61;20500;-75
2022/10/30 10:17:09;0.00;0.00;0.62;0.00;0.00;0.62;3.83;3.40;;;29.30;29.90;;;;;;2265154;61;20407;-70
2022/10/30 10:20:00;0.00;0.00;0.62;0.00;0.00;0.62;4.00;3.20;;;29.40;30.50;;;;;;2265769;61;20392;-67
2022/10/30 10:22:49;0.00;0.00;0.62;0.00;0.00;0.62;4.90;3.37;;;29.40;29.90;;;;;;2264980;61;20429;-68
2022/10/30 10:25:36;0.00;0.00;0.62;0.00;0.00;0.62;4.90;3.40;;;29.50;29.90;;;;;;2265549;61;20773;-70
2022/10/30 10:28:47;0.00;0.00;0.62;0.00;0.00;0.62;4.10;3.37;;;29.50;29.90;;;;;;2265602;61;20575;-70
2022/10/30 10:31:45;0.00;0.00;0.62;0.00;0.00;0.62;4.00;3.23;;;29.50;29.80;;;;;;2264708;61;20357;-74
2022/10/30 10:34:46;0.00;0.00;0.62;0.00;0.00;0.62;5.30;3.60;;;29.60;29.80;;;;;;2497507;53;20603;-71
2022/10/30 10:37:41;0.00;0.00;0.62;0.00;0.00;0.62;5.63;3.33;;;29.70;29.90;;;;;;2260958;61;20372;-69
2022/10/30 10:40:42;0.00;0.00;0.62;0.00;0.00;0.62;7.80;2.87;;;29.70;29.90;;;;;;2261541;61;20393;-69
2022/10/30 10:43:43;0.00;0.00;0.62;0.00;0.00;0.62;4.53;3.03;;;29.70;30.40;;;;;;2261294;61;20381;-70
2022/10/30 10:46:51;0.00;0.00;0.62;0.00;0.00;0.62;5.70;3.97;;;29.80;29.80;;;;;;2260688;61;20424;-73
2022/10/30 10:49:55;0.00;0.00;0.62;0.00;0.00;0.62;5.07;3.60;;;29.90;29.90;;;;;;2261817;61;20377;-69
2022/10/30 10:52:45;0.00;0.00;0.62;0.00;0.00;0.62;5.43;3.43;;;29.90;29.90;;;;;;2260947;61;20357;-69
2022/10/30 10:55:35;0.00;0.00;0.62;0.00;0.00;0.62;3.67;2.90;;;29.90;29.90;;;;;;2261363;61;20636;-69
2022/10/30 10:58:29;0.00;0.00;0.62;0.00;0.00;0.62;3.93;3.33;;;29.90;29.90;;;;;;2261271;61;20361;-69
2022/10/30 11:01:22;0.00;0.00;0.62;0.00;0.00;0.62;4.07;3.07;;;30.00;30.00;;;;;;2261383;61;20396;-68
2022/10/30 11:04:17;0.00;0.00;0.62;0.00;0.00;0.62;4.00;2.83;;;30.00;29.90;;;;;;2262038;61;20370;-66
2022/10/30 11:07:21;0.00;0.00;0.62;0.00;0.00;0.62;4.17;3.07;;;30.10;30.00;;;;;;2261427;61;20400;-69
2022/10/30 11:10:13;0.00;0.00;0.62;0.00;0.00;0.62;4.60;3.37;;;30.10;30.00;;;;;;2262261;61;20366;-68
2022/10/30 11:12:59;0.00;0.00;0.62;0.00;0.00;0.62;10.70;3.37;;;30.20;30.00;;;;;;2261945;61;20358;-68